createdAt,value
2019-04-23T00:00:03.752Z,4.60
2019-04-23T00:02:53.636Z,5.17
2019-04-23T00:10:36.742Z,4.57
2019-04-23T00:13:12.893Z,5.13
2019-04-23T00:15:54.740Z,4.97
2019-04-23T00:18:35.559Z,5.07
2019-04-23T00:20:57.860Z,4.73
2019-04-23T00:23:38.468Z,4.83
2019-04-23T00:26:10.039Z,4.80
2019-04-23T00:28:42.268Z,5.00
2019-04-23T00:31:15.485Z,4.97
2019-04-23T00:33:44.848Z,5.03
2019-04-23T00:36:17.409Z,5.33
2019-04-23T00:38:57.178Z,5.00
2019-04-23T00:41:16.582Z,4.93
2019-04-23T00:43:48.756Z,4.70
2019-04-23T00:46:15.198Z,4.97
2019-04-23T00:48:52.196Z,4.70
2019-04-23T00:51:18.488Z,4.90
2019-04-23T00:53:51.862Z,4.90
2019-04-23T00:58:56.443Z,5.03
2019-04-23T01:01:30.125Z,5.33
2019-04-23T01:03:55.105Z,5.13
2019-04-23T01:06:24.026Z,4.87
2019-04-23T01:08:59.536Z,5.20
2019-04-23T01:11:28.652Z,5.30
2019-04-23T01:14:03.979Z,5.20
2019-04-23T01:16:33.321Z,5.00
2019-04-23T01:19:08.711Z,4.77
2019-04-23T01:21:41.255Z,5.70
2019-04-23T01:24:38.488Z,5.20
2019-04-23T01:30:09.732Z,4.63
2019-04-23T01:35:17.775Z,5.30
2019-04-23T01:40:12.102Z,5.07
2019-04-23T01:45:20.317Z,4.70
2019-04-23T01:55:24.429Z,5.00
2019-04-23T01:57:58.527Z,5.00
2019-04-23T02:00:22.324Z,5.20
2019-04-23T02:02:57.815Z,5.00
2019-04-23T02:08:06.477Z,5.30
2019-04-23T02:10:39.414Z,5.17
2019-04-23T02:13:01.578Z,5.40
2019-04-23T02:15:31.279Z,5.53
2019-04-23T02:18:10.472Z,5.33
2019-04-23T02:20:43.045Z,5.20
2019-04-23T02:23:39.669Z,4.83
2019-04-23T02:26:10.862Z,4.97
2019-04-23T02:31:32.251Z,4.83
2019-04-23T02:33:49.568Z,5.30
2019-04-23T02:41:35.126Z,5.43
2019-04-23T02:43:59.609Z,5.20
2019-04-23T02:46:36.132Z,5.50
2019-04-23T02:48:59.905Z,5.70
2019-04-23T02:51:30.897Z,5.03
2019-04-23T02:54:08.464Z,5.80
2019-04-23T02:59:05.839Z,5.60
2019-04-23T03:04:14.948Z,5.57
2019-04-23T03:09:04.460Z,5.63
2019-04-23T03:11:40.554Z,5.70
2019-04-23T03:14:12.099Z,6.20
2019-04-23T03:19:55.221Z,5.80
2019-04-23T03:22:50.726Z,5.70
2019-04-23T03:25:42.371Z,5.60
2019-04-23T03:27:56.070Z,5.47
2019-04-23T03:31:41.414Z,5.60
2019-04-23T03:38:44.385Z,6.10
2019-04-23T03:41:15.744Z,6.00
2019-04-23T03:46:12.395Z,5.70
2019-04-23T03:48:38.372Z,5.80
2019-04-23T03:50:57.454Z,5.83
2019-04-23T04:01:07.627Z,5.83
2019-04-23T04:04:03.796Z,5.97
2019-04-23T04:06:14.234Z,5.80
2019-04-23T04:08:35.954Z,6.10
2019-04-23T04:16:09.442Z,6.20
2019-04-23T04:18:44.403Z,6.03
2019-04-23T04:21:24.626Z,6.20
2019-04-23T04:23:58.241Z,5.97
2019-04-23T04:26:29.197Z,5.97
2019-04-23T04:28:51.116Z,5.97
2019-04-23T04:31:21.449Z,6.33
2019-04-23T04:36:26.443Z,6.23
2019-04-23T04:38:57.681Z,6.37
2019-04-23T04:44:19.318Z,5.93
2019-04-23T04:54:13.956Z,6.73
2019-04-23T04:59:08.761Z,6.80
2019-04-23T05:04:16.517Z,7.00
2019-04-23T05:06:48.233Z,6.43
2019-04-23T05:09:17.110Z,6.93
2019-04-23T05:11:45.415Z,6.20
2019-04-23T05:14:08.270Z,6.80
2019-04-23T05:16:43.215Z,6.50
2019-04-23T05:19:28.740Z,7.00
2019-04-23T05:24:23.198Z,7.23
2019-04-23T05:26:49.631Z,6.80
2019-04-23T05:29:15.190Z,7.00
2019-04-23T05:31:52.916Z,7.10
2019-04-23T05:34:22.270Z,6.90
2019-04-23T05:37:17.068Z,6.93
2019-04-23T05:39:38.106Z,7.20
2019-04-23T05:41:59.210Z,7.03
2019-04-23T05:44:41.464Z,7.03
2019-04-23T05:47:14.989Z,7.13
2019-04-23T05:49:32.592Z,7.60
2019-04-23T05:52:01.264Z,7.40
2019-04-23T05:57:06.967Z,6.80
2019-04-23T05:59:36.048Z,6.90
2019-04-23T06:02:10.510Z,7.50
2019-04-23T06:07:22.106Z,7.57
2019-04-23T06:09:50.423Z,7.23
2019-04-23T06:12:16.893Z,7.57
2019-04-23T06:14:47.478Z,7.70
2019-04-23T06:17:17.804Z,7.07
2019-04-23T06:19:49.762Z,7.97
2019-04-23T06:24:53.523Z,7.50
2019-04-23T06:29:50.128Z,7.37
2019-04-23T06:32:25.976Z,8.37
2019-04-23T06:34:52.884Z,8.17
2019-04-23T06:42:31.249Z,8.40
2019-04-23T06:44:59.904Z,7.80
2019-04-23T06:47:32.515Z,8.07
2019-04-23T06:49:58.210Z,7.97
2019-04-23T06:52:31.421Z,7.23
2019-04-23T06:55:14.963Z,8.13
2019-04-23T06:57:31.822Z,8.07
2019-04-23T07:07:54.772Z,8.50
2019-04-23T07:10:34.814Z,8.10
2019-04-23T07:12:52.333Z,8.20
2019-04-23T07:15:38.030Z,8.07
2019-04-23T07:17:51.860Z,7.77
2019-04-23T07:20:21.581Z,7.73
2019-04-23T07:23:03.515Z,8.23
2019-04-23T07:27:58.424Z,8.17
2019-04-23T07:30:38.407Z,8.27
2019-04-23T07:33:01.829Z,8.63
2019-04-23T07:35:24.490Z,8.40
2019-04-23T07:38:01.816Z,8.33
2019-04-23T07:40:31.290Z,8.30
2019-04-23T07:43:20.204Z,8.07
2019-04-23T07:46:12.084Z,8.23
2019-04-23T07:48:22.371Z,8.40
2019-04-23T07:51:03.339Z,8.60
2019-04-23T07:53:44.333Z,9.00
2019-04-23T07:56:07.704Z,8.80
2019-04-23T07:58:33.479Z,8.57
2019-04-23T08:01:12.528Z,8.20
2019-04-23T08:03:43.673Z,8.97
2019-04-23T08:06:12.114Z,8.67
2019-04-23T08:08:43.326Z,8.20
2019-04-23T08:13:53.395Z,8.00
2019-04-23T08:16:32.965Z,9.03
2019-04-23T08:21:18.139Z,8.70
2019-04-23T08:24:18.195Z,9.27
2019-04-23T08:27:18.294Z,9.10
2019-04-23T08:29:45.879Z,9.37
2019-04-23T08:37:36.097Z,9.00
2019-04-23T08:40:15.168Z,8.57
2019-04-23T08:50:50.750Z,9.37
2019-04-23T08:56:08.892Z,9.60
2019-04-23T09:01:03.811Z,9.23
2019-04-23T09:03:41.842Z,8.50
2019-04-23T09:08:42.258Z,8.00
2019-04-23T09:16:07.510Z,8.87
2019-04-23T09:18:32.635Z,8.87
2019-04-23T09:21:10.560Z,8.73
2019-04-23T09:23:46.803Z,8.30
2019-04-23T09:26:22.292Z,8.30
2019-04-23T09:28:45.442Z,8.30
2019-04-23T09:31:30.416Z,8.70
2019-04-23T09:37:00.567Z,8.47
2019-04-23T09:39:42.202Z,8.13
2019-04-23T09:42:26.197Z,8.30
2019-04-23T09:47:58.798Z,7.97
2019-04-23T09:55:35.126Z,8.30
2019-04-23T10:00:40.653Z,8.00
2019-04-23T10:03:04.889Z,8.67
2019-04-23T10:05:31.044Z,8.07
2019-04-23T10:08:01.774Z,7.60
2019-04-23T10:10:22.797Z,8.10
2019-04-23T10:12:53.630Z,7.90
2019-04-23T10:15:28.813Z,7.73
2019-04-23T10:17:56.211Z,7.70
2019-04-23T10:20:26.778Z,7.53
2019-04-23T10:22:56.767Z,7.27
2019-04-23T10:25:27.775Z,7.77
2019-04-23T10:28:01.682Z,7.50
2019-04-23T10:30:29.146Z,7.03
2019-04-23T10:33:05.450Z,7.43
2019-04-23T10:35:49.238Z,6.90
2019-04-23T10:38:14.838Z,6.70
2019-04-23T10:40:56.012Z,7.07
2019-04-23T10:43:27.659Z,6.33
2019-04-23T10:46:47.133Z,6.47
2019-04-23T10:52:20.495Z,6.57
2019-04-23T10:57:36.350Z,5.57
2019-04-23T11:00:17.627Z,5.80
2019-04-23T11:03:12.315Z,5.90
2019-04-23T11:05:28.972Z,6.33
2019-04-23T11:07:54.807Z,5.40
2019-04-23T11:10:25.943Z,5.43
2019-04-23T11:13:32.025Z,6.10
2019-04-23T11:16:25.392Z,6.00
2019-04-23T11:19:15.544Z,6.17
2019-04-23T11:22:24.129Z,4.60
2019-04-23T11:29:38.651Z,2.80
2019-04-23T11:32:33.110Z,3.03
2019-04-23T11:38:15.873Z,3.03
2019-04-23T11:40:08.734Z,2.70
2019-04-23T11:42:45.026Z,2.90
2019-04-23T11:45:19.228Z,2.90
2019-04-23T11:48:12.335Z,3.00
2019-04-23T11:50:18.911Z,2.70
2019-04-23T11:57:59.196Z,2.80
2019-04-23T12:00:38.972Z,2.93
2019-04-23T12:03:24.405Z,3.00
2019-04-23T12:06:15.618Z,3.10
2019-04-23T12:08:57.080Z,3.30
2019-04-23T12:14:29.124Z,2.97
2019-04-23T12:17:08.023Z,2.90
2019-04-23T12:22:08.817Z,3.17
2019-04-23T12:40:19.181Z,6.10
2019-04-23T12:42:57.037Z,6.83
2019-04-23T12:45:20.605Z,6.67
2019-04-23T12:47:49.973Z,6.70
2019-04-23T12:50:42.220Z,6.73
2019-04-23T12:52:47.140Z,7.20
2019-04-23T12:55:24.713Z,7.40
2019-04-23T12:58:06.350Z,7.50
2019-04-23T13:00:37.251Z,7.50
2019-04-23T13:03:12.268Z,7.17
2019-04-23T13:05:38.943Z,7.60
2019-04-23T13:08:28.997Z,7.60
2019-04-23T13:10:52.826Z,7.30
2019-04-23T13:16:05.897Z,8.03
2019-04-23T13:18:46.746Z,8.13
2019-04-23T13:21:38.358Z,7.73
2019-04-23T13:23:54.748Z,7.20
2019-04-23T13:26:27.893Z,7.27
2019-04-23T13:29:01.088Z,7.17
2019-04-23T13:31:29.339Z,6.97
2019-04-23T13:34:08.491Z,7.07
2019-04-23T13:36:41.886Z,6.70
2019-04-23T13:39:10.633Z,6.57
2019-04-23T13:41:39.112Z,6.73
2019-04-23T13:44:14.219Z,6.40
2019-04-23T13:46:35.566Z,6.37
2019-04-23T13:49:07.666Z,7.40
2019-04-23T13:51:44.682Z,7.00
2019-04-23T13:59:30.301Z,7.43
2019-04-23T14:01:50.421Z,6.87
2019-04-23T14:04:41.678Z,6.60
2019-04-23T14:09:45.855Z,7.10
2019-04-23T14:12:08.506Z,6.63
2019-04-23T14:14:47.820Z,6.70
2019-04-23T14:19:45.270Z,6.00
2019-04-23T14:22:31.142Z,6.50
2019-04-23T14:27:24.102Z,6.23
2019-04-23T14:29:58.527Z,6.37
2019-04-23T14:32:23.221Z,5.97
2019-04-23T14:35:04.241Z,6.40
2019-04-23T14:37:21.769Z,5.80
2019-04-23T14:40:03.761Z,6.30
2019-04-23T14:42:44.571Z,6.23
2019-04-23T14:45:16.752Z,6.20
2019-04-23T14:47:47.846Z,5.83
2019-04-23T14:50:24.681Z,5.50
2019-04-23T14:52:38.196Z,5.20
2019-04-23T14:57:53.622Z,5.00
2019-04-23T15:02:44.772Z,4.80
2019-04-23T15:07:46.658Z,3.90
2019-04-23T15:10:32.586Z,4.47
2019-04-23T15:12:57.914Z,4.90
2019-04-23T15:15:19.514Z,5.23
2019-04-23T15:17:49.828Z,5.70
2019-04-23T15:20:25.052Z,5.37
2019-04-23T15:27:15.902Z,5.30
2019-04-23T15:30:20.773Z,5.60
2019-04-23T15:33:21.913Z,5.33
2019-04-23T15:35:53.279Z,5.87
2019-04-23T15:38:30.650Z,5.33
2019-04-23T15:40:59.037Z,5.73
2019-04-23T15:43:14.467Z,5.23
2019-04-23T15:45:47.471Z,5.00
2019-04-23T15:48:16.552Z,5.10
2019-04-23T15:50:51.573Z,5.10
2019-04-23T15:53:11.415Z,5.40
2019-04-23T15:58:28.189Z,5.83
2019-04-23T16:03:29.002Z,5.80
2019-04-23T16:05:59.426Z,6.10
2019-04-23T16:16:41.231Z,5.63
2019-04-23T16:22:09.293Z,5.40
2019-04-23T16:24:26.690Z,5.40
2019-04-23T16:27:07.487Z,5.30
2019-04-23T16:32:14.793Z,4.50
2019-04-23T16:34:56.646Z,4.90
2019-04-23T16:37:20.060Z,4.70
2019-04-23T16:40:01.492Z,5.03
2019-04-23T16:45:08.243Z,4.77
2019-04-23T16:47:32.773Z,5.20
2019-04-23T16:50:04.538Z,4.93
2019-04-23T16:52:26.565Z,4.67
2019-04-23T16:57:43.607Z,4.70
2019-04-23T17:02:34.180Z,4.87
2019-04-23T17:05:12.409Z,5.00
2019-04-23T17:07:53.777Z,4.90
2019-04-23T17:10:23.242Z,4.63
2019-04-23T17:12:46.271Z,5.00
2019-04-23T17:15:23.203Z,5.07
2019-04-23T17:17:49.529Z,5.23
2019-04-23T17:20:23.824Z,4.73
2019-04-23T17:25:20.442Z,4.60
2019-04-23T17:27:58.146Z,4.57
2019-04-23T17:30:28.204Z,5.03
2019-04-23T17:33:09.709Z,4.80
2019-04-23T17:36:00.939Z,4.90
2019-04-23T17:38:30.344Z,4.67
2019-04-23T17:40:59.865Z,5.10
2019-04-23T17:43:26.448Z,4.50
2019-04-23T17:45:56.646Z,4.80
2019-04-23T17:48:43.872Z,4.83
2019-04-23T17:51:16.536Z,4.90
2019-04-23T17:53:50.153Z,4.30
2019-04-23T17:56:34.308Z,4.53
2019-04-23T17:58:51.500Z,4.17
2019-04-23T18:14:02.292Z,4.33
2019-04-23T18:21:44.121Z,4.33
2019-04-23T18:24:34.035Z,4.50
2019-04-23T18:29:53.630Z,4.90
2019-04-23T18:32:43.457Z,4.50
2019-04-23T18:40:04.744Z,4.53
2019-04-23T18:45:20.293Z,4.30
2019-04-23T18:47:54.801Z,4.40
2019-04-23T18:50:22.989Z,4.03
2019-04-23T18:55:24.303Z,4.47
2019-04-23T18:57:50.402Z,4.50
2019-04-23T19:00:24.925Z,4.30
2019-04-23T19:03:11.007Z,4.67
2019-04-23T19:06:01.443Z,4.37
2019-04-23T19:08:48.279Z,4.63
2019-04-23T19:11:13.683Z,4.47
2019-04-23T19:13:44.550Z,4.57
2019-04-23T19:16:20.902Z,4.60
2019-04-23T19:18:49.318Z,4.33
2019-04-23T19:21:31.492Z,4.77
2019-04-23T19:26:41.755Z,4.80
2019-04-23T19:31:56.939Z,4.33
2019-04-23T19:39:50.150Z,5.00
2019-04-23T19:42:20.848Z,5.00
2019-04-23T19:52:18.692Z,4.70
2019-04-23T19:54:55.495Z,5.07
2019-04-23T19:57:19.435Z,5.00
2019-04-23T20:02:32.384Z,5.07
2019-04-23T20:05:06.779Z,4.90
2019-04-23T20:09:51.631Z,5.33
2019-04-23T20:12:36.003Z,5.43
2019-04-23T20:17:37.760Z,5.63
2019-04-23T20:20:23.291Z,5.90
2019-04-23T20:22:41.814Z,5.90
2019-04-23T20:27:39.228Z,6.40
2019-04-23T20:30:41.332Z,6.10
2019-04-23T20:33:37.656Z,6.37
2019-04-23T20:35:16.223Z,6.30
2019-04-23T20:38:17.267Z,6.43
2019-04-23T20:40:30.392Z,6.73
2019-04-23T20:42:56.791Z,7.10
2019-04-23T20:45:33.327Z,6.93
2019-04-23T20:48:02.193Z,7.00
2019-04-23T20:50:34.493Z,7.23
2019-04-23T20:52:57.483Z,7.13
2019-04-23T20:58:09.492Z,7.73
2019-04-23T21:01:00.385Z,7.57
2019-04-23T21:03:45.577Z,7.40
2019-04-23T21:05:58.553Z,7.30
2019-04-23T21:10:55.336Z,7.50
2019-04-23T21:13:53.877Z,6.87
2019-04-23T21:15:57.875Z,7.03
2019-04-23T21:18:35.891Z,7.03
2019-04-23T21:21:08.270Z,7.90
2019-04-23T21:23:48.060Z,7.37
2019-04-23T21:26:02.385Z,7.47
2019-04-23T21:28:44.483Z,7.70
2019-04-23T21:36:40.160Z,7.67
2019-04-23T21:39:51.225Z,7.93
2019-04-23T21:44:33.972Z,7.63
2019-04-23T21:47:04.679Z,7.83
2019-04-23T21:49:50.652Z,8.43
2019-04-23T21:52:05.142Z,8.03
2019-04-23T21:54:47.336Z,8.67
2019-04-23T21:57:08.624Z,8.07
2019-04-23T21:59:44.788Z,8.40
2019-04-23T22:02:10.835Z,8.00
2019-04-23T22:04:52.410Z,7.97
2019-04-23T22:07:14.988Z,7.93
2019-04-23T22:09:51.844Z,7.77
2019-04-23T22:12:23.511Z,8.00
2019-04-23T22:14:53.637Z,7.80
2019-04-23T22:17:24.862Z,7.47
2019-04-23T22:20:05.564Z,7.60
2019-04-23T22:22:28.612Z,7.83
2019-04-23T22:24:59.064Z,7.50
2019-04-23T22:27:27.624Z,7.13
2019-04-23T22:29:59.433Z,6.83
2019-04-23T22:32:40.522Z,6.83
2019-04-23T22:40:05.473Z,7.27
2019-04-23T22:43:10.288Z,6.73
2019-04-23T22:45:10.671Z,6.40
2019-04-23T22:47:50.829Z,6.80
2019-04-23T22:50:15.489Z,6.20
2019-04-23T22:52:48.288Z,6.50
2019-04-23T22:58:01.439Z,6.20
2019-04-23T23:00:16.730Z,6.47
2019-04-23T23:05:56.270Z,5.60
2019-04-23T23:08:13.453Z,5.80
2019-04-23T23:10:51.855Z,5.43
2019-04-23T23:13:20.668Z,5.27
2019-04-23T23:15:54.676Z,5.33
2019-04-23T23:18:18.153Z,5.53
2019-04-23T23:23:39.464Z,5.27
2019-04-23T23:25:57.314Z,5.33
2019-04-23T23:28:28.719Z,5.23
2019-04-23T23:33:43.131Z,5.13
2019-04-23T23:36:10.394Z,5.40
2019-04-23T23:38:42.139Z,5.50
2019-04-23T23:46:24.433Z,5.20
2019-04-23T23:48:42.162Z,5.33
2019-04-23T23:56:15.887Z,5.87
2019-04-23T23:58:58.296Z,6.27
